sensor_id;sensor_type;location;lat;lon;timestamp;P1;durP1;ratioP1;P2;durP2;ratioP2
38252;SDS011;24785;52.372;20.672;2023-04-06T00:09:23;16.80;;;4.97;;
38252;SDS011;24785;52.372;20.672;2023-04-06T00:19:24;11.32;;;4.55;;
38252;SDS011;24785;52.372;20.672;2023-04-06T00:29:24;18.25;;;6.10;;
38252;SDS011;24785;52.372;20.672;2023-04-06T00:39:26;15.75;;;4.63;;
38252;SDS011;24785;52.372;20.672;2023-04-06T00:49:26;27.10;;;8.80;;
38252;SDS011;24785;52.372;20.672;2023-04-06T00:59:27;7.90;;;3.30;;
38252;SDS011;24785;52.372;20.672;2023-04-06T01:09:29;13.13;;;3.73;;
38252;SDS011;24785;52.372;20.672;2023-04-06T01:19:31;19.03;;;6.63;;
38252;SDS011;24785;52.372;20.672;2023-04-06T01:29:32;9.45;;;3.78;;
38252;SDS011;24785;52.372;20.672;2023-04-06T01:39:32;102.70;;;38.45;;
38252;SDS011;24785;52.372;20.672;2023-04-06T01:49:33;14.02;;;4.95;;
38252;SDS011;24785;52.372;20.672;2023-04-06T01:59:35;15.50;;;5.53;;
38252;SDS011;24785;52.372;20.672;2023-04-06T02:09:35;17.52;;;7.07;;
38252;SDS011;24785;52.372;20.672;2023-04-06T02:19:36;18.30;;;8.10;;
38252;SDS011;24785;52.372;20.672;2023-04-06T02:29:37;13.35;;;6.32;;
38252;SDS011;24785;52.372;20.672;2023-04-06T02:39:38;13.55;;;5.68;;
38252;SDS011;24785;52.372;20.672;2023-04-06T02:49:39;17.25;;;7.13;;
38252;SDS011;24785;52.372;20.672;2023-04-06T02:59:40;17.05;;;5.90;;
38252;SDS011;24785;52.372;20.672;2023-04-06T03:09:40;13.38;;;5.70;;
38252;SDS011;24785;52.372;20.672;2023-04-06T03:19:41;14.48;;;6.05;;
38252;SDS011;24785;52.372;20.672;2023-04-06T03:29:42;17.70;;;6.50;;
38252;SDS011;24785;52.372;20.672;2023-04-06T03:39:43;18.48;;;6.88;;
38252;SDS011;24785;52.372;20.672;2023-04-06T03:49:44;20.83;;;7.35;;
38252;SDS011;24785;52.372;20.672;2023-04-06T03:59:44;25.73;;;9.50;;
38252;SDS011;24785;52.372;20.672;2023-04-06T04:09:45;19.65;;;9.30;;
38252;SDS011;24785;52.372;20.672;2023-04-06T04:19:46;21.08;;;8.80;;
38252;SDS011;24785;52.372;20.672;2023-04-06T04:29:47;20.48;;;8.85;;
38252;SDS011;24785;52.372;20.672;2023-04-06T04:39:48;17.65;;;7.32;;
38252;SDS011;24785;52.372;20.672;2023-04-06T04:49:49;15.18;;;6.40;;
38252;SDS011;24785;52.372;20.672;2023-04-06T04:59:49;15.43;;;6.13;;
38252;SDS011;24785;52.372;20.672;2023-04-06T05:09:51;13.63;;;6.20;;
38252;SDS011;24785;52.372;20.672;2023-04-06T05:19:52;14.38;;;5.72;;
38252;SDS011;24785;52.372;20.672;2023-04-06T05:29:53;14.50;;;5.75;;
38252;SDS011;24785;52.372;20.672;2023-04-06T05:39:54;12.13;;;5.38;;
38252;SDS011;24785;52.372;20.672;2023-04-06T05:49:54;14.23;;;5.45;;
38252;SDS011;24785;52.372;20.672;2023-04-06T05:59:55;13.73;;;5.10;;
38252;SDS011;24785;52.372;20.672;2023-04-06T06:09:56;9.32;;;4.50;;
38252;SDS011;24785;52.372;20.672;2023-04-06T06:19:58;9.20;;;4.18;;
38252;SDS011;24785;52.372;20.672;2023-04-06T06:30:00;13.37;;;4.50;;
38252;SDS011;24785;52.372;20.672;2023-04-06T06:40:01;11.50;;;4.32;;
38252;SDS011;24785;52.372;20.672;2023-04-06T06:50:02;9.45;;;3.42;;
38252;SDS011;24785;52.372;20.672;2023-04-06T07:00:04;8.83;;;3.40;;
38252;SDS011;24785;52.372;20.672;2023-04-06T07:10:07;7.30;;;3.03;;
38252;SDS011;24785;52.372;20.672;2023-04-06T07:20:08;8.47;;;3.27;;
38252;SDS011;24785;52.372;20.672;2023-04-06T07:30:09;8.10;;;3.72;;
38252;SDS011;24785;52.372;20.672;2023-04-06T07:40:10;6.30;;;2.47;;
38252;SDS011;24785;52.372;20.672;2023-04-06T07:50:11;11.50;;;2.83;;
38252;SDS011;24785;52.372;20.672;2023-04-06T08:00:13;5.22;;;2.47;;
38252;SDS011;24785;52.372;20.672;2023-04-06T08:10:14;6.25;;;2.85;;
38252;SDS011;24785;52.372;20.672;2023-04-06T08:20:15;8.93;;;3.08;;
38252;SDS011;24785;52.372;20.672;2023-04-06T08:30:16;4.28;;;2.58;;
38252;SDS011;24785;52.372;20.672;2023-04-06T08:40:17;11.52;;;3.00;;
38252;SDS011;24785;52.372;20.672;2023-04-06T08:50:18;8.90;;;3.20;;
38252;SDS011;24785;52.372;20.672;2023-04-06T09:00:19;6.63;;;2.97;;
38252;SDS011;24785;52.372;20.672;2023-04-06T09:10:21;10.07;;;3.83;;
38252;SDS011;24785;52.372;20.672;2023-04-06T09:20:25;7.85;;;4.03;;
38252;SDS011;24785;52.372;20.672;2023-04-06T09:30:28;9.35;;;4.05;;
38252;SDS011;24785;52.372;20.672;2023-04-06T09:40:29;8.98;;;3.70;;
38252;SDS011;24785;52.372;20.672;2023-04-06T09:50:30;13.52;;;3.30;;
38252;SDS011;24785;52.372;20.672;2023-04-06T10:00:34;8.38;;;3.33;;
38252;SDS011;24785;52.372;20.672;2023-04-06T10:10:43;11.80;;;4.03;;
38252;SDS011;24785;52.372;20.672;2023-04-06T10:20:53;8.87;;;3.80;;
38252;SDS011;24785;52.372;20.672;2023-04-06T10:41:06;12.13;;;5.05;;
38252;SDS011;24785;52.372;20.672;2023-04-06T10:51:10;12.25;;;5.63;;
38252;SDS011;24785;52.372;20.672;2023-04-06T11:01:12;10.77;;;5.30;;
38252;SDS011;24785;52.372;20.672;2023-04-06T11:11:17;9.07;;;4.97;;
38252;SDS011;24785;52.372;20.672;2023-04-06T11:21:30;11.70;;;5.80;;
38252;SDS011;24785;52.372;20.672;2023-04-06T11:31:42;11.05;;;5.47;;
38252;SDS011;24785;52.372;20.672;2023-04-06T11:41:49;16.45;;;5.82;;
38252;SDS011;24785;52.372;20.672;2023-04-06T11:51:53;12.13;;;4.93;;
38252;SDS011;24785;52.372;20.672;2023-04-06T12:01:54;10.88;;;4.65;;
38252;SDS011;24785;52.372;20.672;2023-04-06T12:11:55;9.32;;;4.68;;
38252;SDS011;24785;52.372;20.672;2023-04-06T12:21:57;9.80;;;4.90;;
38252;SDS011;24785;52.372;20.672;2023-04-06T12:31:59;12.20;;;4.80;;
38252;SDS011;24785;52.372;20.672;2023-04-06T12:42:01;8.68;;;4.28;;
38252;SDS011;24785;52.372;20.672;2023-04-06T12:52:03;8.07;;;4.05;;
38252;SDS011;24785;52.372;20.672;2023-04-06T13:02:04;10.35;;;4.45;;
38252;SDS011;24785;52.372;20.672;2023-04-06T13:12:05;11.97;;;4.87;;
38252;SDS011;24785;52.372;20.672;2023-04-06T13:22:06;11.73;;;4.75;;
38252;SDS011;24785;52.372;20.672;2023-04-06T13:32:07;12.20;;;5.13;;
38252;SDS011;24785;52.372;20.672;2023-04-06T13:42:10;9.13;;;4.03;;
38252;SDS011;24785;52.372;20.672;2023-04-06T13:52:11;8.95;;;4.45;;
38252;SDS011;24785;52.372;20.672;2023-04-06T14:02:12;9.95;;;4.68;;
38252;SDS011;24785;52.372;20.672;2023-04-06T14:12:13;9.57;;;5.28;;
38252;SDS011;24785;52.372;20.672;2023-04-06T14:22:14;10.60;;;5.30;;
38252;SDS011;24785;52.372;20.672;2023-04-06T14:32:14;9.98;;;5.43;;
38252;SDS011;24785;52.372;20.672;2023-04-06T14:42:15;12.18;;;5.40;;
38252;SDS011;24785;52.372;20.672;2023-04-06T14:52:16;10.05;;;5.03;;
38252;SDS011;24785;52.372;20.672;2023-04-06T15:02:17;14.50;;;5.78;;
38252;SDS011;24785;52.372;20.672;2023-04-06T15:12:18;11.77;;;6.10;;
38252;SDS011;24785;52.372;20.672;2023-04-06T15:22:19;11.60;;;5.90;;
38252;SDS011;24785;52.372;20.672;2023-04-06T15:32:19;12.25;;;5.97;;
38252;SDS011;24785;52.372;20.672;2023-04-06T15:42:21;11.80;;;5.78;;
38252;SDS011;24785;52.372;20.672;2023-04-06T15:52:22;11.38;;;5.85;;
38252;SDS011;24785;52.372;20.672;2023-04-06T16:02:23;12.10;;;6.13;;
38252;SDS011;24785;52.372;20.672;2023-04-06T16:12:24;11.32;;;5.53;;
38252;SDS011;24785;52.372;20.672;2023-04-06T16:22:25;17.27;;;8.30;;
38252;SDS011;24785;52.372;20.672;2023-04-06T16:32:28;17.73;;;7.88;;
38252;SDS011;24785;52.372;20.672;2023-04-06T16:42:28;15.32;;;6.95;;
38252;SDS011;24785;52.372;20.672;2023-04-06T16:52:29;17.02;;;7.47;;
38252;SDS011;24785;52.372;20.672;2023-04-06T17:02:31;18.90;;;9.23;;
38252;SDS011;24785;52.372;20.672;2023-04-06T17:12:35;158.80;;;46.03;;
38252;SDS011;24785;52.372;20.672;2023-04-06T17:22:36;62.03;;;20.70;;
38252;SDS011;24785;52.372;20.672;2023-04-06T17:32:37;16.88;;;8.00;;
38252;SDS011;24785;52.372;20.672;2023-04-06T17:42:38;19.83;;;8.80;;
38252;SDS011;24785;52.372;20.672;2023-04-06T17:52:39;47.05;;;16.58;;
38252;SDS011;24785;52.372;20.672;2023-04-06T18:02:41;27.93;;;11.83;;
38252;SDS011;24785;52.372;20.672;2023-04-06T18:12:42;167.63;;;42.78;;
38252;SDS011;24785;52.372;20.672;2023-04-06T18:22:43;47.63;;;17.70;;
38252;SDS011;24785;52.372;20.672;2023-04-06T18:32:44;38.25;;;14.80;;
38252;SDS011;24785;52.372;20.672;2023-04-06T18:42:46;21.17;;;9.57;;
38252;SDS011;24785;52.372;20.672;2023-04-06T18:52:47;21.63;;;9.13;;
38252;SDS011;24785;52.372;20.672;2023-04-06T19:02:48;21.25;;;8.57;;
38252;SDS011;24785;52.372;20.672;2023-04-06T19:12:49;26.20;;;10.93;;
38252;SDS011;24785;52.372;20.672;2023-04-06T19:22:51;65.35;;;22.38;;
38252;SDS011;24785;52.372;20.672;2023-04-06T19:32:52;21.45;;;9.23;;
38252;SDS011;24785;52.372;20.672;2023-04-06T19:42:53;37.10;;;12.15;;
38252;SDS011;24785;52.372;20.672;2023-04-06T19:52:54;42.95;;;15.27;;
38252;SDS011;24785;52.372;20.672;2023-04-06T20:02:55;30.63;;;13.23;;
38252;SDS011;24785;52.372;20.672;2023-04-06T20:12:56;36.75;;;15.00;;
38252;SDS011;24785;52.372;20.672;2023-04-06T20:22:58;37.57;;;16.63;;
38252;SDS011;24785;52.372;20.672;2023-04-06T20:32:59;38.30;;;16.63;;
38252;SDS011;24785;52.372;20.672;2023-04-06T20:43:00;51.65;;;19.65;;
38252;SDS011;24785;52.372;20.672;2023-04-06T20:53:00;65.85;;;24.98;;
38252;SDS011;24785;52.372;20.672;2023-04-06T21:03:01;46.97;;;18.52;;
38252;SDS011;24785;52.372;20.672;2023-04-06T21:13:02;59.05;;;22.15;;
38252;SDS011;24785;52.372;20.672;2023-04-06T21:23:03;65.50;;;20.90;;
38252;SDS011;24785;52.372;20.672;2023-04-06T21:33:04;60.80;;;23.55;;
38252;SDS011;24785;52.372;20.672;2023-04-06T21:43:06;63.25;;;21.63;;
38252;SDS011;24785;52.372;20.672;2023-04-06T21:53:07;69.93;;;23.55;;
38252;SDS011;24785;52.372;20.672;2023-04-06T22:03:08;58.13;;;21.05;;
38252;SDS011;24785;52.372;20.672;2023-04-06T22:13:09;65.75;;;22.23;;
38252;SDS011;24785;52.372;20.672;2023-04-06T22:23:12;53.53;;;19.67;;
38252;SDS011;24785;52.372;20.672;2023-04-06T22:33:13;59.33;;;20.55;;
38252;SDS011;24785;52.372;20.672;2023-04-06T22:43:14;67.70;;;21.40;;
38252;SDS011;24785;52.372;20.672;2023-04-06T22:53:14;58.60;;;22.58;;
38252;SDS011;24785;52.372;20.672;2023-04-06T23:03:15;60.78;;;21.92;;
38252;SDS011;24785;52.372;20.672;2023-04-06T23:13:16;59.03;;;18.73;;
38252;SDS011;24785;52.372;20.672;2023-04-06T23:23:17;51.92;;;18.95;;
38252;SDS011;24785;52.372;20.672;2023-04-06T23:33:18;50.65;;;19.42;;
38252;SDS011;24785;52.372;20.672;2023-04-06T23:43:18;47.38;;;17.40;;
38252;SDS011;24785;52.372;20.672;2023-04-06T23:53:19;49.15;;;17.80;;
